sensor_id;sensor_type;location;lat;lon;timestamp;pressure;altitude;pressure_sealevel;temperature;humidity
10127;BME280;13080;42.608;23.362;2022-12-26T00:00:54;151637.09;;;2.11;91.36
10127;BME280;13080;42.608;23.362;2022-12-26T00:03:20;151630.66;;;2.08;92.04
10127;BME280;13080;42.608;23.362;2022-12-26T00:05:47;151619.06;;;2.03;92.00
10127;BME280;13080;42.608;23.362;2022-12-26T00:08:13;151620.34;;;2.04;91.49
10127;BME280;13080;42.608;23.362;2022-12-26T00:10:41;151626.81;;;2.06;90.98
10127;BME280;13080;42.608;23.362;2022-12-26T00:13:08;151625.50;;;2.06;91.26
10127;BME280;13080;42.608;23.362;2022-12-26T00:15:34;151632.00;;;2.08;90.83
10127;BME280;13080;42.608;23.362;2022-12-26T00:18:04;151624.22;;;2.05;91.24
10127;BME280;13080;42.608;23.362;2022-12-26T00:20:31;151624.22;;;2.05;90.84
10127;BME280;13080;42.608;23.362;2022-12-26T00:22:58;151621.66;;;2.04;91.36
10127;BME280;13080;42.608;23.362;2022-12-26T00:25:25;151598.44;;;1.95;91.87
10127;BME280;13080;42.608;23.362;2022-12-26T00:27:52;151593.28;;;1.93;92.06
10127;BME280;13080;42.608;23.362;2022-12-26T00:30:19;151593.28;;;1.93;91.42
10127;BME280;13080;42.608;23.362;2022-12-26T00:32:45;151591.94;;;1.93;91.82
10127;BME280;13080;42.608;23.362;2022-12-26T00:35:12;151584.22;;;1.90;91.85
10127;BME280;13080;42.608;23.362;2022-12-26T00:37:38;151581.69;;;1.89;92.20
10127;BME280;13080;42.608;23.362;2022-12-26T00:40:05;151594.56;;;1.94;91.63
10127;BME280;13080;42.608;23.362;2022-12-26T00:42:32;151598.44;;;1.95;92.06
10127;BME280;13080;42.608;23.362;2022-12-26T00:45:00;151581.69;;;1.89;91.76
10127;BME280;13080;42.608;23.362;2022-12-26T00:47:26;151586.84;;;1.91;91.82
10127;BME280;13080;42.608;23.362;2022-12-26T00:49:53;151584.22;;;1.90;91.33
10127;BME280;13080;42.608;23.362;2022-12-26T00:52:19;151576.50;;;1.86;91.94
10127;BME280;13080;42.608;23.362;2022-12-26T00:54:46;151576.50;;;1.86;91.67
10127;BME280;13080;42.608;23.362;2022-12-26T00:57:12;151573.91;;;1.85;91.56
10127;BME280;13080;42.608;23.362;2022-12-26T00:59:39;151566.19;;;1.82;91.70
10127;BME280;13080;42.608;23.362;2022-12-26T01:02:07;151566.19;;;1.82;91.78
10127;BME280;13080;42.608;23.362;2022-12-26T01:04:53;151545.53;;;1.74;92.63
10127;BME280;13080;42.608;23.362;2022-12-26T01:07:20;151549.41;;;1.76;93.18
10127;BME280;13080;42.608;23.362;2022-12-26T01:09:46;151546.81;;;1.75;92.71
10127;BME280;13080;42.608;23.362;2022-12-26T01:12:13;151541.69;;;1.73;92.98
10127;BME280;13080;42.608;23.362;2022-12-26T01:14:39;151544.25;;;1.74;92.79
10127;BME280;13080;42.608;23.362;2022-12-26T01:17:07;151535.22;;;1.70;92.90
10127;BME280;13080;42.608;23.362;2022-12-26T01:19:33;151535.22;;;1.70;92.67
10127;BME280;13080;42.608;23.362;2022-12-26T01:22:00;151535.22;;;1.70;93.06
10127;BME280;13080;42.608;23.362;2022-12-26T01:24:26;151523.59;;;1.65;92.60
10127;BME280;13080;42.608;23.362;2022-12-26T01:26:53;151532.66;;;1.69;92.39
10127;BME280;13080;42.608;23.362;2022-12-26T01:29:19;151530.03;;;1.68;92.73
10127;BME280;13080;42.608;23.362;2022-12-26T01:31:46;151532.66;;;1.69;93.47
10127;BME280;13080;42.608;23.362;2022-12-26T01:34:14;151526.22;;;1.66;93.85
10127;BME280;13080;42.608;23.362;2022-12-26T01:36:40;151527.50;;;1.67;93.84
10127;BME280;13080;42.608;23.362;2022-12-26T01:39:07;151530.03;;;1.68;93.10
10127;BME280;13080;42.608;23.362;2022-12-26T01:41:33;151532.66;;;1.69;93.04
10127;BME280;13080;42.608;23.362;2022-12-26T01:44:01;151536.53;;;1.71;92.57
10127;BME280;13080;42.608;23.362;2022-12-26T01:46:29;151531.38;;;1.69;92.95
10127;BME280;13080;42.608;23.362;2022-12-26T01:48:57;151533.94;;;1.70;92.66
10127;BME280;13080;42.608;23.362;2022-12-26T01:51:27;151530.03;;;1.68;92.68
10127;BME280;13080;42.608;23.362;2022-12-26T01:53:56;151530.03;;;1.68;92.66
10127;BME280;13080;42.608;23.362;2022-12-26T01:56:25;151522.31;;;1.65;93.06
10127;BME280;13080;42.608;23.362;2022-12-26T01:58:56;151518.44;;;1.63;92.47
10127;BME280;13080;42.608;23.362;2022-12-26T02:01:23;151505.56;;;1.58;93.62
10127;BME280;13080;42.608;23.362;2022-12-26T02:03:51;151491.41;;;1.53;94.58
10127;BME280;13080;42.608;23.362;2022-12-26T02:06:36;151496.56;;;1.55;94.17
10127;BME280;13080;42.608;23.362;2022-12-26T02:09:05;151495.25;;;1.54;94.23
10127;BME280;13080;42.608;23.362;2022-12-26T02:11:33;151486.25;;;1.51;95.34
10127;BME280;13080;42.608;23.362;2022-12-26T02:14:02;151481.06;;;1.49;95.25
10127;BME280;13080;42.608;23.362;2022-12-26T02:16:30;151473.31;;;1.45;96.47
10127;BME280;13080;42.608;23.362;2022-12-26T02:18:57;151474.63;;;1.46;96.91
10127;BME280;13080;42.608;23.362;2022-12-26T02:21:40;151470.75;;;1.44;97.58
10127;BME280;13080;42.608;23.362;2022-12-26T02:24:19;151456.53;;;1.39;97.96
10127;BME280;13080;42.608;23.362;2022-12-26T02:30:02;151461.72;;;1.41;98.62
10127;BME280;13080;42.608;23.362;2022-12-26T02:32:44;151474.63;;;1.46;98.86
10127;BME280;13080;42.608;23.362;2022-12-26T02:35:14;151479.81;;;1.48;99.43
10127;BME280;13080;42.608;23.362;2022-12-26T02:37:48;151493.97;;;1.54;98.95
10127;BME280;13080;42.608;23.362;2022-12-26T02:40:24;151505.56;;;1.58;98.86
10127;BME280;13080;42.608;23.362;2022-12-26T02:42:54;151496.56;;;1.55;98.17
10127;BME280;13080;42.608;23.362;2022-12-26T02:45:24;151504.28;;;1.58;98.46
10127;BME280;13080;42.608;23.362;2022-12-26T02:48:15;151526.22;;;1.66;98.23
10127;BME280;13080;42.608;23.362;2022-12-26T02:50:48;151532.66;;;1.69;97.21
10127;BME280;13080;42.608;23.362;2022-12-26T02:53:37;151535.22;;;1.70;97.04
10127;BME280;13080;42.608;23.362;2022-12-26T02:56:25;151536.53;;;1.71;97.22
10127;BME280;13080;42.608;23.362;2022-12-26T02:59:12;151533.94;;;1.70;96.67
10127;BME280;13080;42.608;23.362;2022-12-26T03:01:57;151537.81;;;1.71;96.23
10127;BME280;13080;42.608;23.362;2022-12-26T03:04:45;151539.09;;;1.72;96.08
10127;BME280;13080;42.608;23.362;2022-12-26T03:07:33;151531.38;;;1.69;95.58
10127;BME280;13080;42.608;23.362;2022-12-26T03:10:24;151532.66;;;1.69;95.86
10127;BME280;13080;42.608;23.362;2022-12-26T03:13:12;151537.81;;;1.71;96.26
10127;BME280;13080;42.608;23.362;2022-12-26T03:15:42;151532.66;;;1.69;95.62
10127;BME280;13080;42.608;23.362;2022-12-26T03:18:44;151521.03;;;1.64;96.91
10127;BME280;13080;42.608;23.362;2022-12-26T03:21:13;151517.16;;;1.63;96.73
10127;BME280;13080;42.608;23.362;2022-12-26T03:23:43;151505.56;;;1.58;97.13
10127;BME280;13080;42.608;23.362;2022-12-26T03:26:12;151521.03;;;1.64;97.14
10127;BME280;13080;42.608;23.362;2022-12-26T03:28:57;151509.44;;;1.60;96.54
10127;BME280;13080;42.608;23.362;2022-12-26T03:31:43;151475.91;;;1.47;96.42
10127;BME280;13080;42.608;23.362;2022-12-26T03:34:09;151452.72;;;1.37;96.61
10127;BME280;13080;42.608;23.362;2022-12-26T03:39:34;151406.31;;;1.19;96.82
10127;BME280;13080;42.608;23.362;2022-12-26T03:42:22;151393.38;;;1.14;96.86
10127;BME280;13080;42.608;23.362;2022-12-26T03:45:11;151372.81;;;1.06;96.97
10127;BME280;13080;42.608;23.362;2022-12-26T03:48:00;151363.75;;;1.02;98.68
10127;BME280;13080;42.608;23.362;2022-12-26T03:50:48;151354.72;;;0.98;100.00
10127;BME280;13080;42.608;23.362;2022-12-26T03:53:34;151362.47;;;1.01;98.47
10127;BME280;13080;42.608;23.362;2022-12-26T03:56:28;151366.31;;;1.03;100.00
10127;BME280;13080;42.608;23.362;2022-12-26T03:59:15;151374.06;;;1.06;99.69
10127;BME280;13080;42.608;23.362;2022-12-26T04:02:03;151374.06;;;1.06;99.80
10127;BME280;13080;42.608;23.362;2022-12-26T04:04:48;151371.47;;;1.05;100.00
10127;BME280;13080;42.608;23.362;2022-12-26T04:07:34;151362.47;;;1.01;99.74
10127;BME280;13080;42.608;23.362;2022-12-26T04:10:21;151363.75;;;1.02;99.99
10127;BME280;13080;42.608;23.362;2022-12-26T04:13:12;151366.31;;;1.03;100.00
10127;BME280;13080;42.608;23.362;2022-12-26T04:16:00;151367.63;;;1.03;100.00
10127;BME280;13080;42.608;23.362;2022-12-26T04:18:49;151368.91;;;1.04;100.00
10127;BME280;13080;42.608;23.362;2022-12-26T04:21:41;151367.63;;;1.03;100.00
10127;BME280;13080;42.608;23.362;2022-12-26T04:24:30;151361.19;;;1.01;100.00
10127;BME280;13080;42.608;23.362;2022-12-26T04:27:15;151354.72;;;0.98;100.00
10127;BME280;13080;42.608;23.362;2022-12-26T04:30:01;151354.72;;;0.98;100.00
10127;BME280;13080;42.608;23.362;2022-12-26T04:32:46;151348.28;;;0.96;100.00
10127;BME280;13080;42.608;23.362;2022-12-26T04:35:32;151358.59;;;1.00;100.00
10127;BME280;13080;42.608;23.362;2022-12-26T04:38:19;151356.03;;;0.99;100.00
10127;BME280;13080;42.608;23.362;2022-12-26T04:41:05;151365.03;;;1.02;100.00
10127;BME280;13080;42.608;23.362;2022-12-26T04:43:50;151366.31;;;1.03;100.00
10127;BME280;13080;42.608;23.362;2022-12-26T04:46:34;151372.81;;;1.06;100.00
10127;BME280;13080;42.608;23.362;2022-12-26T04:49:02;151372.81;;;1.06;100.00
10127;BME280;13080;42.608;23.362;2022-12-26T04:51:47;151366.31;;;1.03;100.00
10127;BME280;13080;42.608;23.362;2022-12-26T04:54:14;151365.03;;;1.02;100.00
10127;BME280;13080;42.608;23.362;2022-12-26T04:56:40;151370.19;;;1.04;100.00
10127;BME280;13080;42.608;23.362;2022-12-26T04:59:06;151362.47;;;1.01;100.00
10127;BME280;13080;42.608;23.362;2022-12-26T05:01:34;151361.19;;;1.01;100.00
10127;BME280;13080;42.608;23.362;2022-12-26T05:04:18;151347.00;;;0.95;100.00
10127;BME280;13080;42.608;23.362;2022-12-26T05:07:03;151332.81;;;0.90;100.00
10127;BME280;13080;42.608;23.362;2022-12-26T05:09:49;151318.66;;;0.84;100.00
10127;BME280;13080;42.608;23.362;2022-12-26T05:12:16;151318.66;;;0.84;100.00
10127;BME280;13080;42.608;23.362;2022-12-26T05:14:43;151317.38;;;0.83;100.00
10127;BME280;13080;42.608;23.362;2022-12-26T05:17:11;151321.22;;;0.85;100.00
10127;BME280;13080;42.608;23.362;2022-12-26T05:19:55;151321.22;;;0.85;100.00
10127;BME280;13080;42.608;23.362;2022-12-26T05:22:39;151321.22;;;0.85;100.00
10127;BME280;13080;42.608;23.362;2022-12-26T05:25:33;151318.66;;;0.84;100.00
10127;BME280;13080;42.608;23.362;2022-12-26T05:28:18;151321.22;;;0.85;100.00
10127;BME280;13080;42.608;23.362;2022-12-26T05:31:02;151301.91;;;0.77;100.00
10127;BME280;13080;42.608;23.362;2022-12-26T05:33:30;151292.84;;;0.74;100.00
10127;BME280;13080;42.608;23.362;2022-12-26T05:36:15;151246.47;;;0.55;100.00
10127;BME280;13080;42.608;23.362;2022-12-26T05:38:42;151238.78;;;0.52;100.00
10127;BME280;13080;42.608;23.362;2022-12-26T05:41:09;151238.78;;;0.52;100.00
10127;BME280;13080;42.608;23.362;2022-12-26T05:43:35;151227.19;;;0.48;100.00
10127;BME280;13080;42.608;23.362;2022-12-26T05:46:02;151225.91;;;0.47;100.00
10127;BME280;13080;42.608;23.362;2022-12-26T05:48:28;151218.16;;;0.44;100.00
10127;BME280;13080;42.608;23.362;2022-12-26T05:50:58;151232.34;;;0.50;100.00
10127;BME280;13080;42.608;23.362;2022-12-26T05:53:25;151238.78;;;0.52;100.00
10127;BME280;13080;42.608;23.362;2022-12-26T05:55:51;151242.59;;;0.54;100.00
10127;BME280;13080;42.608;23.362;2022-12-26T05:58:18;151241.31;;;0.53;100.00
10127;BME280;13080;42.608;23.362;2022-12-26T06:00:44;151240.03;;;0.53;100.00
10127;BME280;13080;42.608;23.362;2022-12-26T06:03:11;151228.47;;;0.48;100.00
10127;BME280;13080;42.608;23.362;2022-12-26T06:05:37;151228.47;;;0.48;100.00
10127;BME280;13080;42.608;23.362;2022-12-26T06:08:05;151225.91;;;0.47;100.00
10127;BME280;13080;42.608;23.362;2022-12-26T06:10:31;151218.16;;;0.44;100.00
10127;BME280;13080;42.608;23.362;2022-12-26T06:12:58;151223.28;;;0.46;100.00
10127;BME280;13080;42.608;23.362;2022-12-26T06:15:25;151234.88;;;0.51;100.00
10127;BME280;13080;42.608;23.362;2022-12-26T06:17:52;151240.03;;;0.53;100.00
10127;BME280;13080;42.608;23.362;2022-12-26T06:20:19;151242.59;;;0.54;100.00
10127;BME280;13080;42.608;23.362;2022-12-26T06:22:45;151249.09;;;0.56;100.00
10127;BME280;13080;42.608;23.362;2022-12-26T06:25:13;151260.69;;;0.61;100.00
10127;BME280;13080;42.608;23.362;2022-12-26T06:27:41;151265.84;;;0.63;100.00
10127;BME280;13080;42.608;23.362;2022-12-26T06:30:08;151274.81;;;0.67;100.00
10127;BME280;13080;42.608;23.362;2022-12-26T06:32:34;151283.88;;;0.70;100.00
10127;BME280;13080;42.608;23.362;2022-12-26T06:35:01;151296.72;;;0.75;100.00
10127;BME280;13080;42.608;23.362;2022-12-26T06:37:27;151314.78;;;0.82;100.00
10127;BME280;13080;42.608;23.362;2022-12-26T06:39:55;151327.69;;;0.88;100.00
10127;BME280;13080;42.608;23.362;2022-12-26T06:42:23;151348.28;;;0.96;100.00
10127;BME280;13080;42.608;23.362;2022-12-26T06:44:49;151352.16;;;0.97;100.00
10127;BME280;13080;42.608;23.362;2022-12-26T06:47:16;151379.25;;;1.08;100.00
10127;BME280;13080;42.608;23.362;2022-12-26T06:49:42;151392.13;;;1.13;100.00
10127;BME280;13080;42.608;23.362;2022-12-26T06:52:09;151411.44;;;1.21;100.00
10127;BME280;13080;42.608;23.362;2022-12-26T06:54:36;151423.03;;;1.25;100.00
10127;BME280;13080;42.608;23.362;2022-12-26T06:57:02;151437.22;;;1.31;100.00
10127;BME280;13080;42.608;23.362;2022-12-26T06:59:30;151446.28;;;1.35;100.00
10127;BME280;13080;42.608;23.362;2022-12-26T07:01:57;151451.44;;;1.37;100.00
10127;BME280;13080;42.608;23.362;2022-12-26T07:04:23;151456.53;;;1.39;100.00
10127;BME280;13080;42.608;23.362;2022-12-26T07:06:50;151465.59;;;1.42;100.00
10127;BME280;13080;42.608;23.362;2022-12-26T07:09:17;151482.34;;;1.49;100.00
10127;BME280;13080;42.608;23.362;2022-12-26T07:11:45;151478.47;;;1.48;100.00
10127;BME280;13080;42.608;23.362;2022-12-26T07:14:11;151481.06;;;1.49;100.00
10127;BME280;13080;42.608;23.362;2022-12-26T07:16:40;151475.91;;;1.47;100.00
10127;BME280;13080;42.608;23.362;2022-12-26T07:19:08;151482.34;;;1.49;99.87
10127;BME280;13080;42.608;23.362;2022-12-26T07:21:35;151492.69;;;1.53;99.77
10127;BME280;13080;42.608;23.362;2022-12-26T07:24:02;151496.56;;;1.55;100.00
10127;BME280;13080;42.608;23.362;2022-12-26T07:26:28;151500.41;;;1.56;100.00
10127;BME280;13080;42.608;23.362;2022-12-26T07:28:56;151522.31;;;1.65;100.00
10127;BME280;13080;42.608;23.362;2022-12-26T07:31:23;151539.09;;;1.72;100.00
10127;BME280;13080;42.608;23.362;2022-12-26T07:33:52;151546.81;;;1.75;100.00
10127;BME280;13080;42.608;23.362;2022-12-26T07:36:19;151566.19;;;1.82;100.00
10127;BME280;13080;42.608;23.362;2022-12-26T07:38:45;151579.06;;;1.87;100.00
10127;BME280;13080;42.608;23.362;2022-12-26T07:41:12;151589.41;;;1.92;99.46
10127;BME280;13080;42.608;23.362;2022-12-26T07:43:56;151610.06;;;2.00;99.75
10127;BME280;13080;42.608;23.362;2022-12-26T07:46:22;151632.00;;;2.08;99.12
10127;BME280;13080;42.608;23.362;2022-12-26T07:48:49;151644.88;;;2.14;98.78
10127;BME280;13080;42.608;23.362;2022-12-26T07:51:17;151664.22;;;2.21;98.64
10127;BME280;13080;42.608;23.362;2022-12-26T07:53:43;151686.16;;;2.30;98.94
10127;BME280;13080;42.608;23.362;2022-12-26T07:56:10;151709.38;;;2.39;98.83
10127;BME280;13080;42.608;23.362;2022-12-26T07:58:36;151732.59;;;2.48;97.72
10127;BME280;13080;42.608;23.362;2022-12-26T08:01:03;151739.03;;;2.51;97.28
10127;BME280;13080;42.608;23.362;2022-12-26T08:03:30;151748.09;;;2.55;97.95
10127;BME280;13080;42.608;23.362;2022-12-26T08:05:57;151760.97;;;2.60;97.81
10127;BME280;13080;42.608;23.362;2022-12-26T08:08:25;151767.47;;;2.62;96.68
10127;BME280;13080;42.608;23.362;2022-12-26T08:10:56;151770.03;;;2.63;96.37
10127;BME280;13080;42.608;23.362;2022-12-26T08:13:23;151780.38;;;2.67;95.98
10127;BME280;13080;42.608;23.362;2022-12-26T08:15:50;151786.81;;;2.70;96.28
10127;BME280;13080;42.608;23.362;2022-12-26T08:18:16;151797.16;;;2.74;95.88
10127;BME280;13080;42.608;23.362;2022-12-26T08:20:43;151806.16;;;2.78;95.18
10127;BME280;13080;42.608;23.362;2022-12-26T08:23:09;151828.09;;;2.86;95.29
10127;BME280;13080;42.608;23.362;2022-12-26T08:25:37;151847.50;;;2.94;94.43
10127;BME280;13080;42.608;23.362;2022-12-26T08:28:05;151868.13;;;3.02;93.66
10127;BME280;13080;42.608;23.362;2022-12-26T08:30:32;151884.91;;;3.09;93.93
10127;BME280;13080;42.608;23.362;2022-12-26T08:32:58;151914.63;;;3.21;93.76
10127;BME280;13080;42.608;23.362;2022-12-26T08:35:25;151922.38;;;3.24;93.82
10127;BME280;13080;42.608;23.362;2022-12-26T08:37:52;151927.53;;;3.26;93.08
10127;BME280;13080;42.608;23.362;2022-12-26T08:40:19;151948.16;;;3.34;92.56
10127;BME280;13080;42.608;23.362;2022-12-26T08:42:47;151952.06;;;3.36;92.40
10127;BME280;13080;42.608;23.362;2022-12-26T08:45:13;151967.56;;;3.42;91.40
10127;BME280;13080;42.608;23.362;2022-12-26T08:47:40;151984.34;;;3.48;90.93
10127;BME280;13080;42.608;23.362;2022-12-26T08:50:06;151995.97;;;3.53;90.48
10127;BME280;13080;42.608;23.362;2022-12-26T08:52:33;152002.44;;;3.56;90.80
10127;BME280;13080;42.608;23.362;2022-12-26T08:55:00;152006.31;;;3.57;90.59
10127;BME280;13080;42.608;23.362;2022-12-26T08:57:27;151992.09;;;3.51;90.32
10127;BME280;13080;42.608;23.362;2022-12-26T08:59:55;152002.44;;;3.56;90.29
10127;BME280;13080;42.608;23.362;2022-12-26T09:02:21;152002.44;;;3.56;90.20
10127;BME280;13080;42.608;23.362;2022-12-26T09:04:48;151995.97;;;3.53;90.63
10127;BME280;13080;42.608;23.362;2022-12-26T09:07:14;152023.09;;;3.64;90.05
10127;BME280;13080;42.608;23.362;2022-12-26T09:09:41;152025.66;;;3.65;90.49
10127;BME280;13080;42.608;23.362;2022-12-26T09:12:08;152033.44;;;3.68;90.06
10127;BME280;13080;42.608;23.362;2022-12-26T09:14:34;152038.56;;;3.70;90.24
10127;BME280;13080;42.608;23.362;2022-12-26T09:17:02;152050.25;;;3.74;89.90
10127;BME280;13080;42.608;23.362;2022-12-26T09:19:29;152026.94;;;3.65;89.80
10127;BME280;13080;42.608;23.362;2022-12-26T09:21:56;152052.81;;;3.75;90.07
10127;BME280;13080;42.608;23.362;2022-12-26T09:24:37;152051.53;;;3.75;90.31
10127;BME280;13080;42.608;23.362;2022-12-26T09:27:03;152055.38;;;3.77;90.25
10127;BME280;13080;42.608;23.362;2022-12-26T09:29:30;152077.34;;;3.85;90.04
10127;BME280;13080;42.608;23.362;2022-12-26T09:31:56;152085.13;;;3.88;90.70
10127;BME280;13080;42.608;23.362;2022-12-26T09:34:24;152103.19;;;3.95;90.12
10127;BME280;13080;42.608;23.362;2022-12-26T09:36:51;152101.91;;;3.95;90.23
10127;BME280;13080;42.608;23.362;2022-12-26T09:39:17;152113.53;;;4.00;90.10
10127;BME280;13080;42.608;23.362;2022-12-26T09:41:50;152123.88;;;4.04;90.00
10127;BME280;13080;42.608;23.362;2022-12-26T09:44:20;152129.00;;;4.06;89.76
10127;BME280;13080;42.608;23.362;2022-12-26T09:46:51;152139.34;;;4.10;88.91
10127;BME280;13080;42.608;23.362;2022-12-26T09:49:22;152158.75;;;4.18;88.79
10127;BME280;13080;42.608;23.362;2022-12-26T09:51:52;152178.13;;;4.25;88.51
10127;BME280;13080;42.608;23.362;2022-12-26T09:54:24;152196.22;;;4.32;88.47
10127;BME280;13080;42.608;23.362;2022-12-26T09:56:52;152202.72;;;4.35;88.48
10127;BME280;13080;42.608;23.362;2022-12-26T09:59:20;152211.72;;;4.38;88.82
10127;BME280;13080;42.608;23.362;2022-12-26T10:01:48;152222.09;;;4.43;88.41
10127;BME280;13080;42.608;23.362;2022-12-26T10:04:17;152233.72;;;4.47;88.74
10127;BME280;13080;42.608;23.362;2022-12-26T10:06:47;152256.97;;;4.56;88.58
10127;BME280;13080;42.608;23.362;2022-12-26T10:09:30;152259.59;;;4.57;88.15
10127;BME280;13080;42.608;23.362;2022-12-26T10:12:07;152284.13;;;4.67;87.49
10127;BME280;13080;42.608;23.362;2022-12-26T10:14:39;152291.88;;;4.70;87.27
10127;BME280;13080;42.608;23.362;2022-12-26T10:17:09;152309.97;;;4.77;87.05
10127;BME280;13080;42.608;23.362;2022-12-26T10:19:42;152324.22;;;4.83;86.61
10127;BME280;13080;42.608;23.362;2022-12-26T10:22:15;152344.91;;;4.91;86.70
10127;BME280;13080;42.608;23.362;2022-12-26T10:24:48;152363.00;;;4.98;86.59
10127;BME280;13080;42.608;23.362;2022-12-26T10:27:16;152382.38;;;5.06;86.68
10127;BME280;13080;42.608;23.362;2022-12-26T10:29:45;152392.72;;;5.10;85.71
10127;BME280;13080;42.608;23.362;2022-12-26T10:32:13;152423.81;;;5.23;84.98
10127;BME280;13080;42.608;23.362;2022-12-26T10:34:43;152441.91;;;5.30;84.19
10127;BME280;13080;42.608;23.362;2022-12-26T10:37:11;152449.63;;;5.33;84.02
10127;BME280;13080;42.608;23.362;2022-12-26T10:39:42;152458.72;;;5.36;84.03
10127;BME280;13080;42.608;23.362;2022-12-26T10:42:13;152472.91;;;5.42;82.69
10127;BME280;13080;42.608;23.362;2022-12-26T10:44:42;152488.44;;;5.48;81.82
10127;BME280;13080;42.608;23.362;2022-12-26T10:47:12;152496.19;;;5.51;82.37
10127;BME280;13080;42.608;23.362;2022-12-26T10:49:41;152511.72;;;5.57;81.76
10127;BME280;13080;42.608;23.362;2022-12-26T10:52:09;152513.00;;;5.58;82.07
10127;BME280;13080;42.608;23.362;2022-12-26T10:54:37;152524.66;;;5.62;81.63
10127;BME280;13080;42.608;23.362;2022-12-26T10:57:03;152538.91;;;5.68;80.93
10127;BME280;13080;42.608;23.362;2022-12-26T10:59:39;152555.75;;;5.75;80.03
10127;BME280;13080;42.608;23.362;2022-12-26T11:02:11;152571.28;;;5.81;79.17
10127;BME280;13080;42.608;23.362;2022-12-26T11:04:38;152595.84;;;5.91;79.15
10127;BME280;13080;42.608;23.362;2022-12-26T11:07:22;152608.81;;;5.96;78.59
10127;BME280;13080;42.608;23.362;2022-12-26T11:09:50;152610.09;;;5.96;78.03
10127;BME280;13080;42.608;23.362;2022-12-26T11:12:22;152616.63;;;5.99;77.63
10127;BME280;13080;42.608;23.362;2022-12-26T11:14:52;152628.25;;;6.03;77.70
10127;BME280;13080;42.608;23.362;2022-12-26T11:17:25;152623.09;;;6.01;77.71
10127;BME280;13080;42.608;23.362;2022-12-26T11:20:08;152632.13;;;6.05;78.97
10127;BME280;13080;42.608;23.362;2022-12-26T11:22:35;152641.19;;;6.09;77.43
10127;BME280;13080;42.608;23.362;2022-12-26T11:25:12;152642.47;;;6.09;78.10
10127;BME280;13080;42.608;23.362;2022-12-26T11:27:41;152648.94;;;6.12;77.77
10127;BME280;13080;42.608;23.362;2022-12-26T11:30:16;152652.84;;;6.13;77.70
10127;BME280;13080;42.608;23.362;2022-12-26T11:32:44;152650.28;;;6.12;77.49
10127;BME280;13080;42.608;23.362;2022-12-26T11:35:15;152659.31;;;6.16;77.16
10127;BME280;13080;42.608;23.362;2022-12-26T11:37:43;152668.38;;;6.19;77.59
10127;BME280;13080;42.608;23.362;2022-12-26T11:40:14;152664.47;;;6.18;76.96
10127;BME280;13080;42.608;23.362;2022-12-26T11:42:41;152672.22;;;6.21;76.50
10127;BME280;13080;42.608;23.362;2022-12-26T11:45:09;152687.78;;;6.27;75.17
10127;BME280;13080;42.608;23.362;2022-12-26T11:47:37;152698.13;;;6.31;75.80
10127;BME280;13080;42.608;23.362;2022-12-26T11:50:11;152696.84;;;6.31;75.96
10127;BME280;13080;42.608;23.362;2022-12-26T11:52:43;152708.50;;;6.35;75.24
10127;BME280;13080;42.608;23.362;2022-12-26T11:55:25;152713.69;;;6.37;75.14
10127;BME280;13080;42.608;23.362;2022-12-26T11:57:55;152713.69;;;6.37;73.07
10127;BME280;13080;42.608;23.362;2022-12-26T12:00:22;152722.72;;;6.41;73.44
10127;BME280;13080;42.608;23.362;2022-12-26T12:02:51;152729.25;;;6.43;74.88
10127;BME280;13080;42.608;23.362;2022-12-26T12:05:21;152739.56;;;6.48;75.90
10127;BME280;13080;42.608;23.362;2022-12-26T12:08:01;152738.28;;;6.47;76.03
10127;BME280;13080;42.608;23.362;2022-12-26T12:10:43;152743.44;;;6.49;75.51
10127;BME280;13080;42.608;23.362;2022-12-26T12:13:16;152749.91;;;6.52;76.22
10127;BME280;13080;42.608;23.362;2022-12-26T12:15:45;152755.09;;;6.54;76.39
10127;BME280;13080;42.608;23.362;2022-12-26T12:18:19;152756.38;;;6.54;75.68
10127;BME280;13080;42.608;23.362;2022-12-26T12:20:51;152752.53;;;6.53;75.35
10127;BME280;13080;42.608;23.362;2022-12-26T12:26:06;152759.00;;;6.55;76.63
10127;BME280;13080;42.608;23.362;2022-12-26T12:28:52;152755.09;;;6.54;77.18
10127;BME280;13080;42.608;23.362;2022-12-26T12:31:26;152729.25;;;6.43;76.97
10127;BME280;13080;42.608;23.362;2022-12-26T12:33:59;152731.81;;;6.44;74.72
10127;BME280;13080;42.608;23.362;2022-12-26T12:36:31;152742.16;;;6.49;73.97
10127;BME280;13080;42.608;23.362;2022-12-26T12:39:04;152742.16;;;6.49;75.40
10127;BME280;13080;42.608;23.362;2022-12-26T12:41:51;152740.88;;;6.48;76.06
10127;BME280;13080;42.608;23.362;2022-12-26T12:44:21;152726.63;;;6.42;76.51
10127;BME280;13080;42.608;23.362;2022-12-26T12:46:54;152713.69;;;6.37;77.19
10127;BME280;13080;42.608;23.362;2022-12-26T12:49:30;152703.31;;;6.33;77.94
10127;BME280;13080;42.608;23.362;2022-12-26T12:52:01;152691.69;;;6.29;78.25
10127;BME280;13080;42.608;23.362;2022-12-26T12:54:39;152674.84;;;6.22;78.32
10127;BME280;13080;42.608;23.362;2022-12-26T12:57:12;152651.56;;;6.13;79.38
10127;BME280;13080;42.608;23.362;2022-12-26T12:59:43;152636.00;;;6.07;79.22
10127;BME280;13080;42.608;23.362;2022-12-26T13:02:14;152611.44;;;5.97;79.37
10127;BME280;13080;42.608;23.362;2022-12-26T13:04:44;152601.03;;;5.93;79.38
10127;BME280;13080;42.608;23.362;2022-12-26T13:07:15;152589.38;;;5.88;79.92
10127;BME280;13080;42.608;23.362;2022-12-26T13:09:45;152572.56;;;5.81;80.72
10127;BME280;13080;42.608;23.362;2022-12-26T13:12:14;152551.84;;;5.73;81.11
10127;BME280;13080;42.608;23.362;2022-12-26T13:14:44;152535.03;;;5.67;81.32
10127;BME280;13080;42.608;23.362;2022-12-26T13:17:13;152514.34;;;5.58;81.89
10127;BME280;13080;42.608;23.362;2022-12-26T13:19:45;152507.84;;;5.56;82.08